createdAt,value
2022-11-17T00:01:38.358Z,100.00
2022-11-17T00:04:46.361Z,100.00
2022-11-17T00:07:51.919Z,100.00
2022-11-17T00:11:04.673Z,100.00
2022-11-17T00:14:30.092Z,100.00
2022-11-17T00:17:39.066Z,100.00
2022-11-17T00:21:06.718Z,100.00
2022-11-17T00:24:12.668Z,100.00
2022-11-17T00:27:20.282Z,100.00
2022-11-17T00:30:46.300Z,100.00
2022-11-17T00:34:08.458Z,100.00
2022-11-17T00:37:16.448Z,100.00
2022-11-17T00:40:28.185Z,100.00
2022-11-17T00:43:36.335Z,100.00
2022-11-17T00:46:46.395Z,100.00
2022-11-17T00:49:56.649Z,100.00
2022-11-17T00:53:03.942Z,100.00
2022-11-17T00:56:12.222Z,100.00
2022-11-17T00:59:19.255Z,100.00
2022-11-17T01:02:28.085Z,100.00
2022-11-17T01:05:36.524Z,100.00
2022-11-17T01:08:49.689Z,100.00
2022-11-17T01:11:54.966Z,100.00
2022-11-17T01:15:02.319Z,100.00
2022-11-17T01:18:11.968Z,100.00
2022-11-17T01:21:23.157Z,100.00
2022-11-17T01:24:28.403Z,100.00
2022-11-17T01:27:35.977Z,100.00
2022-11-17T01:30:42.475Z,100.00
2022-11-17T01:33:49.426Z,100.00
2022-11-17T01:37:14.221Z,100.00
2022-11-17T01:40:22.150Z,100.00
2022-11-17T01:43:50.611Z,100.00
2022-11-17T01:47:01.205Z,100.00
2022-11-17T01:50:12.882Z,100.00
2022-11-17T01:53:21.243Z,100.00
2022-11-17T01:56:30.157Z,100.00
2022-11-17T01:59:39.816Z,100.00
2022-11-17T02:02:45.571Z,100.00
2022-11-17T02:05:56.777Z,100.00
2022-11-17T02:09:06.514Z,100.00
2022-11-17T02:12:15.651Z,100.00
2022-11-17T02:15:24.227Z,100.00
2022-11-17T02:18:30.472Z,100.00
2022-11-17T02:21:45.982Z,100.00
2022-11-17T02:24:54.990Z,100.00
2022-11-17T02:28:42.667Z,100.00
2022-11-17T02:31:51.165Z,100.00
2022-11-17T02:35:20.413Z,100.00
2022-11-17T02:38:31.425Z,100.00
2022-11-17T02:41:54.150Z,100.00
2022-11-17T02:45:03.834Z,100.00
2022-11-17T02:48:14.211Z,100.00
2022-11-17T02:51:24.863Z,100.00
2022-11-17T02:54:33.734Z,100.00
2022-11-17T02:57:40.803Z,100.00
2022-11-17T03:01:09.808Z,100.00
2022-11-17T03:04:32.257Z,100.00
2022-11-17T03:07:44.878Z,100.00
2022-11-17T03:11:06.000Z,100.00
2022-11-17T03:14:21.023Z,100.00
2022-11-17T03:17:32.940Z,100.00
2022-11-17T03:20:45.851Z,100.00
2022-11-17T03:24:17.433Z,100.00
2022-11-17T03:27:36.992Z,100.00
2022-11-17T03:30:48.322Z,100.00
2022-11-17T03:33:55.449Z,100.00
2022-11-17T03:37:04.959Z,100.00
2022-11-17T03:40:13.367Z,100.00
2022-11-17T03:43:22.750Z,100.00
2022-11-17T03:46:33.011Z,100.00
2022-11-17T03:49:42.147Z,100.00
2022-11-17T03:52:53.728Z,100.00
2022-11-17T03:56:10.104Z,100.00
2022-11-17T03:59:23.664Z,100.00
2022-11-17T04:02:30.115Z,100.00
2022-11-17T04:05:38.967Z,100.00
2022-11-17T04:08:46.377Z,100.00
2022-11-17T04:12:14.225Z,100.00
2022-11-17T04:15:53.981Z,100.00
2022-11-17T04:19:01.013Z,100.00
2022-11-17T04:22:09.201Z,100.00
2022-11-17T04:25:38.140Z,100.00
2022-11-17T04:28:46.735Z,100.00
2022-11-17T04:31:56.788Z,100.00
2022-11-17T04:35:04.223Z,100.00
2022-11-17T04:38:10.824Z,100.00
2022-11-17T04:41:36.689Z,100.00
2022-11-17T04:44:43.914Z,100.00
2022-11-17T04:47:50.873Z,100.00
2022-11-17T04:50:59.071Z,100.00
2022-11-17T04:54:06.276Z,100.00
2022-11-17T04:57:12.939Z,100.00
2022-11-17T05:00:19.494Z,100.00
2022-11-17T05:03:28.155Z,100.00
2022-11-17T05:06:34.366Z,100.00
2022-11-17T05:09:44.370Z,100.00
2022-11-17T05:13:10.293Z,100.00
2022-11-17T05:16:37.216Z,100.00
2022-11-17T05:19:44.455Z,100.00
2022-11-17T05:23:09.535Z,100.00
2022-11-17T05:26:15.567Z,100.00
2022-11-17T05:29:22.993Z,100.00
2022-11-17T05:32:27.839Z,100.00
2022-11-17T05:35:32.662Z,100.00
2022-11-17T05:38:39.184Z,100.00
2022-11-17T05:41:50.084Z,100.00
2022-11-17T05:44:55.552Z,100.00
2022-11-17T05:48:02.082Z,100.00
2022-11-17T05:51:05.722Z,100.00
2022-11-17T05:54:10.850Z,100.00
2022-11-17T05:57:18.413Z,100.00
2022-11-17T06:00:23.394Z,100.00
2022-11-17T06:03:34.058Z,100.00
2022-11-17T06:06:38.564Z,100.00
2022-11-17T06:09:42.262Z,100.00
2022-11-17T06:12:46.041Z,100.00
2022-11-17T06:15:50.092Z,100.00
2022-11-17T06:19:02.815Z,100.00
2022-11-17T06:22:12.988Z,100.00
2022-11-17T06:25:20.338Z,100.00
2022-11-17T06:28:25.134Z,100.00
2022-11-17T06:31:32.889Z,100.00
2022-11-17T06:34:37.700Z,100.00
2022-11-17T06:37:40.741Z,100.00
2022-11-17T06:40:44.393Z,100.00
2022-11-17T06:43:49.621Z,100.00
2022-11-17T06:46:54.103Z,100.00
2022-11-17T06:49:56.997Z,100.00
2022-11-17T06:53:01.213Z,100.00
2022-11-17T06:56:12.003Z,100.00
2022-11-17T06:59:16.156Z,100.00
2022-11-17T07:02:18.887Z,100.00
2022-11-17T07:05:22.757Z,100.00
2022-11-17T07:08:27.245Z,100.00
2022-11-17T07:11:30.452Z,100.00
2022-11-17T07:14:34.186Z,100.00
2022-11-17T07:17:37.664Z,100.00
2022-11-17T07:20:40.483Z,100.00
2022-11-17T07:23:45.057Z,100.00
2022-11-17T07:26:47.976Z,100.00
2022-11-17T07:29:50.791Z,100.00
2022-11-17T07:32:55.097Z,100.00
2022-11-17T07:36:05.492Z,100.00
2022-11-17T07:39:10.553Z,100.00
2022-11-17T07:42:14.293Z,100.00
2022-11-17T07:45:17.278Z,100.00
2022-11-17T07:48:20.602Z,100.00
2022-11-17T07:51:24.938Z,100.00
2022-11-17T07:54:28.857Z,100.00
2022-11-17T07:57:31.435Z,100.00
2022-11-17T08:00:35.176Z,100.00
2022-11-17T08:03:38.986Z,100.00
2022-11-17T08:06:42.295Z,100.00
2022-11-17T08:09:45.895Z,100.00
2022-11-17T08:12:51.451Z,100.00
2022-11-17T08:15:59.233Z,100.00
2022-11-17T08:19:04.913Z,100.00
2022-11-17T08:22:10.164Z,100.00
2022-11-17T08:25:14.773Z,100.00
2022-11-17T08:28:19.113Z,100.00
2022-11-17T08:31:22.814Z,100.00
2022-11-17T08:34:26.355Z,100.00
2022-11-17T08:37:30.805Z,100.00
2022-11-17T08:40:34.866Z,100.00
2022-11-17T08:43:37.738Z,100.00
2022-11-17T08:46:42.006Z,100.00
2022-11-17T08:49:48.342Z,100.00
2022-11-17T08:52:53.163Z,100.00
2022-11-17T08:55:58.518Z,100.00
2022-11-17T08:59:02.633Z,100.00
2022-11-17T09:02:05.861Z,100.00
2022-11-17T09:05:09.308Z,100.00
2022-11-17T09:08:45.134Z,100.00
2022-11-17T09:11:39.618Z,100.00
2022-11-17T09:14:43.975Z,100.00
2022-11-17T09:17:48.512Z,100.00
2022-11-17T09:20:51.587Z,100.00
2022-11-17T09:23:54.811Z,100.00
2022-11-17T09:26:57.698Z,100.00
2022-11-17T09:30:01.205Z,100.00
2022-11-17T09:33:03.839Z,100.00
2022-11-17T09:36:08.532Z,100.00
2022-11-17T09:39:13.116Z,100.00
2022-11-17T09:42:18.675Z,100.00
2022-11-17T09:45:25.454Z,100.00
2022-11-17T09:48:51.979Z,100.00
2022-11-17T09:51:58.524Z,100.00
2022-11-17T09:55:09.134Z,100.00
2022-11-17T09:58:31.316Z,100.00
2022-11-17T10:01:35.055Z,100.00
2022-11-17T10:04:38.494Z,100.00
2022-11-17T10:07:47.358Z,100.00
2022-11-17T10:10:52.212Z,100.00
2022-11-17T10:13:55.150Z,100.00
2022-11-17T10:17:01.243Z,100.00
2022-11-17T10:20:14.774Z,100.00
2022-11-17T10:23:19.933Z,100.00
2022-11-17T10:26:23.594Z,100.00
2022-11-17T10:29:27.194Z,100.00
2022-11-17T10:32:31.277Z,100.00
2022-11-17T10:35:35.494Z,100.00
2022-11-17T10:38:43.986Z,100.00
2022-11-17T10:41:50.993Z,100.00
2022-11-17T10:44:55.588Z,100.00
2022-11-17T10:48:07.863Z,100.00
2022-11-17T10:51:17.158Z,100.00
2022-11-17T10:54:23.817Z,100.00
2022-11-17T10:57:26.900Z,100.00
2022-11-17T11:00:32.620Z,100.00
2022-11-17T11:03:37.318Z,100.00
2022-11-17T11:06:42.057Z,100.00
2022-11-17T11:10:09.106Z,100.00
2022-11-17T11:13:20.943Z,100.00
2022-11-17T11:16:26.154Z,100.00
2022-11-17T11:19:29.578Z,100.00
2022-11-17T11:22:32.420Z,100.00
2022-11-17T11:25:41.232Z,100.00
2022-11-17T11:28:55.400Z,100.00
2022-11-17T11:32:24.418Z,100.00
2022-11-17T11:35:40.208Z,100.00
2022-11-17T11:38:52.696Z,100.00
2022-11-17T11:42:08.499Z,100.00
2022-11-17T11:45:15.033Z,100.00
2022-11-17T11:48:28.215Z,100.00
2022-11-17T11:51:36.415Z,100.00
2022-11-17T11:54:51.161Z,100.00
2022-11-17T11:58:20.953Z,100.00
2022-11-17T12:01:24.255Z,100.00
2022-11-17T12:04:36.694Z,100.00
2022-11-17T12:07:51.259Z,100.00
2022-11-17T12:10:58.611Z,100.00
2022-11-17T12:14:02.201Z,100.00
2022-11-17T12:17:04.845Z,100.00
2022-11-17T12:20:25.987Z,100.00
2022-11-17T12:23:39.686Z,99.27
2022-11-17T12:26:42.178Z,97.87
2022-11-17T12:29:45.930Z,97.60
2022-11-17T12:32:51.714Z,99.05
2022-11-17T12:36:13.461Z,100.00
2022-11-17T12:39:36.491Z,100.00
2022-11-17T12:43:01.553Z,100.00
2022-11-17T12:46:14.145Z,99.98
2022-11-17T12:49:27.353Z,100.00
2022-11-17T12:52:36.414Z,97.17
2022-11-17T12:55:42.977Z,98.07
2022-11-17T12:58:48.282Z,99.38
2022-11-17T13:02:11.288Z,99.96
2022-11-17T13:05:20.187Z,100.00
2022-11-17T13:08:24.212Z,100.00
2022-11-17T13:11:27.002Z,100.00
2022-11-17T13:14:30.926Z,100.00
2022-11-17T13:17:38.757Z,100.00
2022-11-17T13:20:41.424Z,100.00
2022-11-17T13:23:45.108Z,100.00
2022-11-17T13:26:57.989Z,100.00
2022-11-17T13:30:21.541Z,100.00
2022-11-17T13:33:25.423Z,100.00
2022-11-17T13:36:28.521Z,99.33
2022-11-17T13:39:31.677Z,100.00
2022-11-17T13:42:35.767Z,100.00
2022-11-17T13:45:43.856Z,100.00
2022-11-17T13:48:49.860Z,100.00
2022-11-17T13:51:54.929Z,100.00
2022-11-17T13:54:58.380Z,100.00
2022-11-17T13:58:03.829Z,100.00
2022-11-17T14:01:11.302Z,100.00
2022-11-17T14:04:20.301Z,100.00
2022-11-17T14:07:29.879Z,100.00
2022-11-17T14:10:34.741Z,100.00
2022-11-17T14:13:40.171Z,100.00
2022-11-17T14:16:46.107Z,100.00
2022-11-17T14:19:50.353Z,100.00
2022-11-17T14:23:04.475Z,100.00
2022-11-17T14:26:16.909Z,100.00
2022-11-17T14:29:21.165Z,100.00
2022-11-17T14:32:24.441Z,100.00
2022-11-17T14:35:27.944Z,100.00
2022-11-17T14:38:31.960Z,100.00
2022-11-17T14:41:36.329Z,100.00
2022-11-17T14:44:40.030Z,100.00
2022-11-17T14:47:44.519Z,100.00
2022-11-17T14:50:48.070Z,100.00
2022-11-17T14:53:51.309Z,100.00
2022-11-17T14:56:55.061Z,100.00
2022-11-17T15:00:00.101Z,100.00
2022-11-17T15:03:04.697Z,100.00
2022-11-17T15:06:12.125Z,100.00
2022-11-17T15:09:20.729Z,100.00
2022-11-17T15:12:24.787Z,100.00
2022-11-17T15:15:28.879Z,100.00
2022-11-17T15:18:34.505Z,100.00
2022-11-17T15:21:39.292Z,100.00
2022-11-17T15:24:43.891Z,100.00
2022-11-17T15:27:48.212Z,100.00
2022-11-17T15:30:52.790Z,100.00
2022-11-17T15:33:57.927Z,100.00
2022-11-17T15:37:03.048Z,100.00
2022-11-17T15:40:08.613Z,100.00
2022-11-17T15:43:14.228Z,100.00
2022-11-17T15:46:20.739Z,100.00
2022-11-17T15:49:25.512Z,100.00
2022-11-17T15:52:56.752Z,100.00
2022-11-17T15:55:56.024Z,100.00
2022-11-17T15:59:06.232Z,100.00
2022-11-17T16:02:10.777Z,100.00
2022-11-17T16:05:15.692Z,100.00
2022-11-17T16:08:20.683Z,100.00
2022-11-17T16:11:27.769Z,100.00
2022-11-17T16:14:32.905Z,100.00
2022-11-17T16:17:38.888Z,100.00
2022-11-17T16:20:43.851Z,100.00
2022-11-17T16:23:54.104Z,100.00
2022-11-17T16:26:59.491Z,100.00
2022-11-17T16:30:04.134Z,100.00
2022-11-17T16:33:13.685Z,100.00
2022-11-17T16:36:20.861Z,100.00
2022-11-17T16:39:27.948Z,100.00
2022-11-17T16:42:33.183Z,100.00
2022-11-17T16:45:43.383Z,100.00
2022-11-17T16:48:50.466Z,100.00
2022-11-17T16:51:56.467Z,100.00
2022-11-17T16:55:05.701Z,100.00
2022-11-17T16:58:10.915Z,100.00
2022-11-17T17:01:20.790Z,100.00
2022-11-17T17:04:27.646Z,100.00
2022-11-17T17:07:33.701Z,100.00
2022-11-17T17:10:41.634Z,100.00
2022-11-17T17:13:49.964Z,100.00
2022-11-17T17:16:56.727Z,100.00
2022-11-17T17:20:01.768Z,100.00
2022-11-17T17:23:04.803Z,100.00
2022-11-17T17:26:14.023Z,100.00
2022-11-17T17:29:19.715Z,100.00
2022-11-17T17:32:25.812Z,100.00
2022-11-17T17:35:33.387Z,100.00
2022-11-17T17:38:37.578Z,100.00
2022-11-17T17:41:45.360Z,100.00
2022-11-17T17:44:49.569Z,100.00
2022-11-17T17:47:53.508Z,100.00
2022-11-17T17:51:07.049Z,100.00
2022-11-17T17:54:16.563Z,100.00
2022-11-17T17:57:20.805Z,100.00
2022-11-17T18:00:26.345Z,100.00
2022-11-17T18:03:36.551Z,100.00
2022-11-17T18:06:44.531Z,100.00
2022-11-17T18:09:52.140Z,100.00
2022-11-17T18:12:59.887Z,100.00
2022-11-17T18:16:14.141Z,100.00
2022-11-17T18:19:21.577Z,100.00
2022-11-17T18:22:29.403Z,100.00
2022-11-17T18:25:35.271Z,100.00
2022-11-17T18:28:45.597Z,100.00
2022-11-17T18:31:54.828Z,100.00
2022-11-17T18:35:00.461Z,100.00
2022-11-17T18:38:06.665Z,100.00
2022-11-17T18:41:16.386Z,100.00
2022-11-17T18:44:22.499Z,100.00
2022-11-17T18:47:25.994Z,100.00
2022-11-17T18:50:29.081Z,100.00
2022-11-17T18:53:33.327Z,100.00
2022-11-17T18:56:37.720Z,100.00
2022-11-17T18:59:43.749Z,100.00
2022-11-17T19:02:48.653Z,100.00
2022-11-17T19:05:54.271Z,100.00
2022-11-17T19:08:58.902Z,100.00
2022-11-17T19:12:03.028Z,100.00
2022-11-17T19:15:11.094Z,100.00
2022-11-17T19:18:19.961Z,100.00
2022-11-17T19:21:30.319Z,100.00
2022-11-17T19:24:37.098Z,100.00
2022-11-17T19:27:42.462Z,100.00
2022-11-17T19:30:49.439Z,100.00
2022-11-17T19:33:56.042Z,100.00
2022-11-17T19:37:01.810Z,100.00
2022-11-17T19:40:09.849Z,100.00
2022-11-17T19:43:19.648Z,100.00
2022-11-17T19:46:25.579Z,100.00
2022-11-17T19:49:30.960Z,100.00
2022-11-17T19:52:36.475Z,100.00
2022-11-17T19:55:41.759Z,100.00
2022-11-17T19:58:46.311Z,100.00
2022-11-17T20:01:50.874Z,100.00
2022-11-17T20:04:58.330Z,100.00
2022-11-17T20:08:03.526Z,100.00
2022-11-17T20:11:16.789Z,100.00
2022-11-17T20:14:21.498Z,100.00
2022-11-17T20:17:27.348Z,100.00
2022-11-17T20:20:31.951Z,100.00
2022-11-17T20:23:37.440Z,100.00
2022-11-17T20:26:47.846Z,100.00
2022-11-17T20:29:59.314Z,100.00
2022-11-17T20:33:03.366Z,100.00
2022-11-17T20:36:11.098Z,100.00
2022-11-17T20:39:18.431Z,100.00
2022-11-17T20:42:25.011Z,100.00
2022-11-17T20:45:31.024Z,100.00
2022-11-17T20:48:38.744Z,100.00
2022-11-17T20:51:47.790Z,100.00
2022-11-17T20:54:53.645Z,100.00
2022-11-17T20:58:03.221Z,100.00
2022-11-17T21:01:11.601Z,100.00
2022-11-17T21:04:17.907Z,100.00
2022-11-17T21:07:24.455Z,100.00
2022-11-17T21:10:32.482Z,100.00
2022-11-17T21:13:38.611Z,100.00
2022-11-17T21:16:49.817Z,100.00
2022-11-17T21:19:56.574Z,100.00
2022-11-17T21:23:08.007Z,100.00
2022-11-17T21:26:16.050Z,100.00
2022-11-17T21:29:23.857Z,100.00
2022-11-17T21:32:32.252Z,100.00
2022-11-17T21:35:37.138Z,100.00
2022-11-17T21:38:45.195Z,100.00
2022-11-17T21:41:53.148Z,100.00
2022-11-17T21:45:02.159Z,100.00
2022-11-17T21:48:09.945Z,100.00
2022-11-17T21:51:19.267Z,100.00
2022-11-17T21:54:25.023Z,100.00
2022-11-17T21:57:33.767Z,100.00
2022-11-17T22:00:43.912Z,100.00
2022-11-17T22:03:53.368Z,100.00
2022-11-17T22:06:58.190Z,100.00
2022-11-17T22:10:06.296Z,100.00
2022-11-17T22:13:13.644Z,100.00
2022-11-17T22:16:22.237Z,100.00
2022-11-17T22:19:29.987Z,100.00
2022-11-17T22:22:37.705Z,100.00
2022-11-17T22:25:45.822Z,100.00
2022-11-17T22:28:54.089Z,100.00
2022-11-17T22:32:00.287Z,100.00
2022-11-17T22:35:05.170Z,100.00
2022-11-17T22:38:11.001Z,100.00
2022-11-17T22:41:14.560Z,100.00
2022-11-17T22:44:20.075Z,100.00
2022-11-17T22:47:25.438Z,100.00
2022-11-17T22:50:31.363Z,100.00
2022-11-17T22:53:36.908Z,100.00
2022-11-17T22:56:43.945Z,100.00
2022-11-17T22:59:50.079Z,100.00
2022-11-17T23:02:54.864Z,100.00
2022-11-17T23:06:07.558Z,100.00
2022-11-17T23:09:14.188Z,100.00
2022-11-17T23:12:20.020Z,100.00
2022-11-17T23:15:23.715Z,100.00
2022-11-17T23:18:29.037Z,100.00
2022-11-17T23:21:33.312Z,100.00
2022-11-17T23:24:43.067Z,100.00
2022-11-17T23:27:49.487Z,100.00
2022-11-17T23:31:00.087Z,100.00
2022-11-17T23:34:10.094Z,100.00
2022-11-17T23:37:22.691Z,100.00
2022-11-17T23:40:32.151Z,100.00
2022-11-17T23:43:38.210Z,100.00
2022-11-17T23:46:44.817Z,100.00
2022-11-17T23:49:53.024Z,100.00
2022-11-17T23:53:02.302Z,100.00
2022-11-17T23:56:11.957Z,100.00
2022-11-17T23:59:21.618Z,100.00
